Lexington, KY (40505)

4:08 AM EST on January 18, 2017 (GMT -0500)
Eastland | | Change Station

Elev 988 ft 38.06 °N, 84.43 °W | Updated 34 seconds ago

Overcast
Overcast
41.1 °F
Feels Like 38 °F
N
5.0
Wind Variable Wind from WSW

Today
High -- | Low -- °F
--% Chance of Precip.
Yesterday
High -- | Low -- °F
Precip. -- in
Pressure 30.12 in
Visibility 10.0 miles
Clouds Overcast 1200 ft
Windchill 38 °F
Dew Point 40 °F
Humidity 98%
Rainfall 0.00 in
Snow Depth Not available.
7:51 AM 5:45 PM
Waning Gibbous, 65% visible
METAR KLEX 180854Z 28011KT 10SM OVC012 06/03 A3012 RMK AO2 RAB09E19 SLP198 P0000 60001 T00560028 51009 $
Pressure 30.12 in
Visibility 10.0 miles
Clouds Overcast 1200 ft
Windchill 38 °F
Dew Point 40 °F
Humidity 98%
Rainfall 0.00 in
Snow Depth Not available.
7:51 AM 5:45 PM
Waning Gibbous, 65% visible
METAR KLEX 180854Z 28011KT 10SM OVC012 06/03 A3012 RMK AO2 RAB09E19 SLP198 P0000 60001 T00560028 51009 $

Get Your Daily Forecast Email!

Thanks for signing up!

Be on the lookout for a verification email in your inbox.

You'll start receiving the daily forecast at 8 AM.

×

10-Day Weather Forecast

Almanac

Astronomy

Jan. 18, 2017 Rise Set
Actual Time
Civil Twilight
Nautical Twilight
Astronomical Twilight
Moon
Length of Visible Light
Length of Day
Tomorrow will be .
, % of the Moon is Illuminated

Today's Extremes

State Highs State Lows

Community

WunderPhotos

Upload Photos

1,962,540 photos uploaded!

WunderBlog® & News

Nearby

Air Quality

  Air Quality AQ Index Pollutant
Not available.

Snow Depth

Station Depth Elevation

Earthquake Activity

City Distance Mag. Time & Date
Minimum magnitude displayed is 2.5.

Coastal Water Temperatures

Place Temperature

Stations

Nearby Weather Stations

Station Location Temp. Windchill Dew Point Humidity Wind Precip. Elev Updated Type
                   

Watches & Warnings

There are currently no watches in effect.